sensor_id;sensor_type;location;lat;lon;timestamp;temperature;humidity
1381;DHT22;684;48.342;10.096;2023-05-10T00:00:28;15.50;46.90
1381;DHT22;684;48.342;10.096;2023-05-10T00:02:54;15.50;47.00
1381;DHT22;684;48.342;10.096;2023-05-10T00:05:21;15.50;47.20
1381;DHT22;684;48.342;10.096;2023-05-10T00:07:48;15.50;47.30
1381;DHT22;684;48.342;10.096;2023-05-10T00:10:15;15.50;47.20
1381;DHT22;684;48.342;10.096;2023-05-10T00:12:42;15.40;47.10
1381;DHT22;684;48.342;10.096;2023-05-10T00:15:10;15.40;46.80
1381;DHT22;684;48.342;10.096;2023-05-10T00:17:37;15.40;46.50
1381;DHT22;684;48.342;10.096;2023-05-10T00:20:05;15.40;46.50
1381;DHT22;684;48.342;10.096;2023-05-10T00:22:32;15.40;46.60
1381;DHT22;684;48.342;10.096;2023-05-10T00:24:58;15.40;46.60
1381;DHT22;684;48.342;10.096;2023-05-10T00:27:25;15.30;46.70
1381;DHT22;684;48.342;10.096;2023-05-10T00:29:52;15.30;46.90
1381;DHT22;684;48.342;10.096;2023-05-10T00:32:20;15.20;46.90
1381;DHT22;684;48.342;10.096;2023-05-10T00:34:47;15.20;47.00
1381;DHT22;684;48.342;10.096;2023-05-10T00:37:13;15.20;47.10
1381;DHT22;684;48.342;10.096;2023-05-10T00:39:40;15.10;47.30
1381;DHT22;684;48.342;10.096;2023-05-10T00:42:07;15.20;47.10
1381;DHT22;684;48.342;10.096;2023-05-10T00:44:34;15.20;47.10
1381;DHT22;684;48.342;10.096;2023-05-10T00:47:00;15.20;47.30
1381;DHT22;684;48.342;10.096;2023-05-10T00:49:29;15.10;47.30
1381;DHT22;684;48.342;10.096;2023-05-10T00:51:56;15.10;47.30
1381;DHT22;684;48.342;10.096;2023-05-10T00:54:23;15.10;47.40
1381;DHT22;684;48.342;10.096;2023-05-10T00:56:50;15.10;47.40
1381;DHT22;684;48.342;10.096;2023-05-10T00:59:17;15.10;48.20
1381;DHT22;684;48.342;10.096;2023-05-10T01:01:45;15.10;47.30
1381;DHT22;684;48.342;10.096;2023-05-10T01:04:13;15.10;47.20
1381;DHT22;684;48.342;10.096;2023-05-10T01:06:41;15.10;47.20
1381;DHT22;684;48.342;10.096;2023-05-10T01:09:08;15.10;47.50
1381;DHT22;684;48.342;10.096;2023-05-10T01:11:36;15.10;47.50
1381;DHT22;684;48.342;10.096;2023-05-10T01:14:05;15.10;47.60
1381;DHT22;684;48.342;10.096;2023-05-10T01:16:34;15.00;47.50
1381;DHT22;684;48.342;10.096;2023-05-10T01:19:04;15.00;47.50
1381;DHT22;684;48.342;10.096;2023-05-10T01:21:38;15.00;47.60
1381;DHT22;684;48.342;10.096;2023-05-10T01:24:38;15.00;47.60
1381;DHT22;684;48.342;10.096;2023-05-10T01:30:37;14.90;47.90
1381;DHT22;684;48.342;10.096;2023-05-10T01:33:16;14.90;47.90
1381;DHT22;684;48.342;10.096;2023-05-10T01:35:50;14.90;47.90
1381;DHT22;684;48.342;10.096;2023-05-10T01:38:22;14.90;47.80
1381;DHT22;684;48.342;10.096;2023-05-10T01:40:57;14.90;47.80
1381;DHT22;684;48.342;10.096;2023-05-10T01:43:30;14.90;47.80
1381;DHT22;684;48.342;10.096;2023-05-10T01:46:02;14.90;47.80
1381;DHT22;684;48.342;10.096;2023-05-10T01:48:37;14.90;47.90
1381;DHT22;684;48.342;10.096;2023-05-10T01:51:06;14.90;48.00
1381;DHT22;684;48.342;10.096;2023-05-10T01:53:37;14.90;47.90
1381;DHT22;684;48.342;10.096;2023-05-10T01:56:05;14.80;48.00
1381;DHT22;684;48.342;10.096;2023-05-10T01:58:34;14.80;47.90
1381;DHT22;684;48.342;10.096;2023-05-10T02:01:04;14.80;47.50
1381;DHT22;684;48.342;10.096;2023-05-10T02:03:32;14.80;47.80
1381;DHT22;684;48.342;10.096;2023-05-10T02:06:02;14.80;47.70
1381;DHT22;684;48.342;10.096;2023-05-10T02:08:30;14.80;47.80
1381;DHT22;684;48.342;10.096;2023-05-10T02:10:57;14.80;47.70
1381;DHT22;684;48.342;10.096;2023-05-10T02:13:26;14.90;47.90
1381;DHT22;684;48.342;10.096;2023-05-10T02:15:54;14.90;47.70
1381;DHT22;684;48.342;10.096;2023-05-10T02:18:22;14.90;47.50
1381;DHT22;684;48.342;10.096;2023-05-10T02:20:52;14.90;47.50
1381;DHT22;684;48.342;10.096;2023-05-10T02:23:23;14.90;47.30
1381;DHT22;684;48.342;10.096;2023-05-10T02:25:51;14.90;47.30
1381;DHT22;684;48.342;10.096;2023-05-10T02:28:19;14.90;46.90
1381;DHT22;684;48.342;10.096;2023-05-10T02:30:47;14.90;46.90
1381;DHT22;684;48.342;10.096;2023-05-10T02:33:14;14.90;46.90
1381;DHT22;684;48.342;10.096;2023-05-10T02:35:41;14.90;46.90
1381;DHT22;684;48.342;10.096;2023-05-10T02:38:09;14.90;46.80
1381;DHT22;684;48.342;10.096;2023-05-10T02:40:39;14.80;46.80
1381;DHT22;684;48.342;10.096;2023-05-10T02:43:09;14.80;46.80
1381;DHT22;684;48.342;10.096;2023-05-10T02:45:37;14.80;46.70
1381;DHT22;684;48.342;10.096;2023-05-10T02:48:05;14.80;46.50
1381;DHT22;684;48.342;10.096;2023-05-10T02:50:33;14.80;46.20
1381;DHT22;684;48.342;10.096;2023-05-10T02:53:01;14.80;45.90
1381;DHT22;684;48.342;10.096;2023-05-10T02:55:33;14.80;46.00
1381;DHT22;684;48.342;10.096;2023-05-10T02:58:03;14.80;46.10
1381;DHT22;684;48.342;10.096;2023-05-10T03:00:31;14.80;46.00
1381;DHT22;684;48.342;10.096;2023-05-10T03:02:58;14.80;45.80
1381;DHT22;684;48.342;10.096;2023-05-10T03:05:25;14.80;45.70
1381;DHT22;684;48.342;10.096;2023-05-10T03:07:52;14.70;45.60
1381;DHT22;684;48.342;10.096;2023-05-10T03:10:20;14.70;45.60
1381;DHT22;684;48.342;10.096;2023-05-10T03:12:59;14.70;45.40
1381;DHT22;684;48.342;10.096;2023-05-10T03:15:37;14.70;45.40
1381;DHT22;684;48.342;10.096;2023-05-10T03:18:09;14.70;45.20
1381;DHT22;684;48.342;10.096;2023-05-10T03:20:42;14.60;45.00
1381;DHT22;684;48.342;10.096;2023-05-10T03:23:13;14.60;44.90
1381;DHT22;684;48.342;10.096;2023-05-10T03:25:43;14.60;44.60
1381;DHT22;684;48.342;10.096;2023-05-10T03:28:11;14.60;44.30
1381;DHT22;684;48.342;10.096;2023-05-10T03:30:40;14.60;44.30
1381;DHT22;684;48.342;10.096;2023-05-10T03:33:07;14.60;44.40
1381;DHT22;684;48.342;10.096;2023-05-10T03:35:34;14.50;45.10
1381;DHT22;684;48.342;10.096;2023-05-10T03:38:01;14.50;44.30
1381;DHT22;684;48.342;10.096;2023-05-10T03:40:28;14.50;44.40
1381;DHT22;684;48.342;10.096;2023-05-10T03:42:57;14.50;44.40
1381;DHT22;684;48.342;10.096;2023-05-10T03:45:23;14.40;44.60
1381;DHT22;684;48.342;10.096;2023-05-10T03:47:52;14.40;44.60
1381;DHT22;684;48.342;10.096;2023-05-10T03:50:19;14.40;44.70
1381;DHT22;684;48.342;10.096;2023-05-10T03:52:46;14.40;44.60
1381;DHT22;684;48.342;10.096;2023-05-10T03:55:13;14.40;44.60
1381;DHT22;684;48.342;10.096;2023-05-10T03:57:39;14.40;44.60
1381;DHT22;684;48.342;10.096;2023-05-10T04:00:07;14.40;44.60
1381;DHT22;684;48.342;10.096;2023-05-10T04:02:34;14.40;44.60
1381;DHT22;684;48.342;10.096;2023-05-10T04:05:03;14.30;44.70
1381;DHT22;684;48.342;10.096;2023-05-10T04:07:29;14.30;44.70
1381;DHT22;684;48.342;10.096;2023-05-10T04:09:56;14.20;44.70
1381;DHT22;684;48.342;10.096;2023-05-10T04:12:23;14.20;44.70
1381;DHT22;684;48.342;10.096;2023-05-10T04:14:50;14.20;44.90
1381;DHT22;684;48.342;10.096;2023-05-10T04:17:17;14.20;44.90
1381;DHT22;684;48.342;10.096;2023-05-10T04:19:43;14.20;45.00
1381;DHT22;684;48.342;10.096;2023-05-10T04:22:11;14.20;45.00
1381;DHT22;684;48.342;10.096;2023-05-10T04:24:38;14.10;44.90
1381;DHT22;684;48.342;10.096;2023-05-10T04:27:05;14.10;45.00
1381;DHT22;684;48.342;10.096;2023-05-10T04:29:32;14.10;45.00
1381;DHT22;684;48.342;10.096;2023-05-10T04:31:58;14.10;45.70
1381;DHT22;684;48.342;10.096;2023-05-10T04:34:25;14.10;45.00
1381;DHT22;684;48.342;10.096;2023-05-10T04:36:52;14.10;45.00
1381;DHT22;684;48.342;10.096;2023-05-10T04:39:20;14.10;44.90
1381;DHT22;684;48.342;10.096;2023-05-10T04:41:47;14.10;44.90
1381;DHT22;684;48.342;10.096;2023-05-10T04:44:13;14.20;44.70
1381;DHT22;684;48.342;10.096;2023-05-10T04:46:40;14.20;44.70
1381;DHT22;684;48.342;10.096;2023-05-10T04:49:07;14.20;45.50
1381;DHT22;684;48.342;10.096;2023-05-10T04:51:33;14.20;44.80
1381;DHT22;684;48.342;10.096;2023-05-10T04:54:00;14.30;44.70
1381;DHT22;684;48.342;10.096;2023-05-10T04:56:28;14.30;44.50
1381;DHT22;684;48.342;10.096;2023-05-10T04:58:55;14.30;44.60
1381;DHT22;684;48.342;10.096;2023-05-10T05:01:21;14.30;44.60
1381;DHT22;684;48.342;10.096;2023-05-10T05:03:48;14.30;44.60
1381;DHT22;684;48.342;10.096;2023-05-10T05:06:15;14.30;44.50
1381;DHT22;684;48.342;10.096;2023-05-10T05:08:41;14.30;44.50
1381;DHT22;684;48.342;10.096;2023-05-10T05:11:08;14.40;44.30
1381;DHT22;684;48.342;10.096;2023-05-10T05:13:36;14.40;44.00
1381;DHT22;684;48.342;10.096;2023-05-10T05:16:03;14.40;43.90
1381;DHT22;684;48.342;10.096;2023-05-10T05:18:30;14.40;43.90
1381;DHT22;684;48.342;10.096;2023-05-10T05:20:57;14.50;44.00
1381;DHT22;684;48.342;10.096;2023-05-10T05:23:24;14.50;43.90
1381;DHT22;684;48.342;10.096;2023-05-10T05:25:51;14.50;43.80
1381;DHT22;684;48.342;10.096;2023-05-10T05:28:18;14.50;43.60
1381;DHT22;684;48.342;10.096;2023-05-10T05:30:46;14.50;43.40
1381;DHT22;684;48.342;10.096;2023-05-10T05:33:13;14.60;43.40
1381;DHT22;684;48.342;10.096;2023-05-10T05:35:40;14.60;43.30
1381;DHT22;684;48.342;10.096;2023-05-10T05:38:08;14.60;43.30
1381;DHT22;684;48.342;10.096;2023-05-10T05:40:35;14.60;43.10
1381;DHT22;684;48.342;10.096;2023-05-10T05:43:01;14.60;43.20
1381;DHT22;684;48.342;10.096;2023-05-10T05:45:28;14.60;43.20
1381;DHT22;684;48.342;10.096;2023-05-10T05:47:56;14.60;43.00
1381;DHT22;684;48.342;10.096;2023-05-10T05:50:23;14.60;43.00
1381;DHT22;684;48.342;10.096;2023-05-10T05:52:49;14.70;42.90
1381;DHT22;684;48.342;10.096;2023-05-10T05:55:16;14.70;42.70
1381;DHT22;684;48.342;10.096;2023-05-10T05:57:43;14.70;42.40
1381;DHT22;684;48.342;10.096;2023-05-10T06:00:10;14.70;42.40
1381;DHT22;684;48.342;10.096;2023-05-10T06:02:37;14.80;42.50
1381;DHT22;684;48.342;10.096;2023-05-10T06:05:06;14.80;42.30
1381;DHT22;684;48.342;10.096;2023-05-10T06:07:33;14.80;42.10
1381;DHT22;684;48.342;10.096;2023-05-10T06:10:00;14.90;42.30
1381;DHT22;684;48.342;10.096;2023-05-10T06:12:28;14.90;42.00
1381;DHT22;684;48.342;10.096;2023-05-10T06:14:54;15.00;41.90
1381;DHT22;684;48.342;10.096;2023-05-10T06:17:21;15.10;41.80
1381;DHT22;684;48.342;10.096;2023-05-10T06:19:48;15.20;41.50
1381;DHT22;684;48.342;10.096;2023-05-10T06:22:16;15.30;40.80
1381;DHT22;684;48.342;10.096;2023-05-10T06:24:43;15.40;40.90
1381;DHT22;684;48.342;10.096;2023-05-10T06:27:10;15.50;39.80
1381;DHT22;684;48.342;10.096;2023-05-10T06:29:36;15.60;39.10
1381;DHT22;684;48.342;10.096;2023-05-10T06:32:03;15.70;38.90
1381;DHT22;684;48.342;10.096;2023-05-10T06:34:30;15.80;38.70
1381;DHT22;684;48.342;10.096;2023-05-10T06:36:57;15.80;38.60
1381;DHT22;684;48.342;10.096;2023-05-10T06:39:25;15.90;38.60
1381;DHT22;684;48.342;10.096;2023-05-10T06:41:51;16.00;38.20
1381;DHT22;684;48.342;10.096;2023-05-10T06:44:19;16.00;37.50
1381;DHT22;684;48.342;10.096;2023-05-10T06:46:46;16.00;37.60
1381;DHT22;684;48.342;10.096;2023-05-10T06:49:13;15.90;37.40
1381;DHT22;684;48.342;10.096;2023-05-10T06:51:40;16.00;37.40
1381;DHT22;684;48.342;10.096;2023-05-10T06:54:06;16.10;37.50
1381;DHT22;684;48.342;10.096;2023-05-10T06:56:34;16.10;37.50
1381;DHT22;684;48.342;10.096;2023-05-10T06:59:01;16.20;37.50
1381;DHT22;684;48.342;10.096;2023-05-10T07:01:28;16.30;37.00
1381;DHT22;684;48.342;10.096;2023-05-10T07:03:55;16.30;36.40
1381;DHT22;684;48.342;10.096;2023-05-10T07:06:22;16.20;36.60
1381;DHT22;684;48.342;10.096;2023-05-10T07:08:48;16.20;36.60
1381;DHT22;684;48.342;10.096;2023-05-10T07:11:15;16.20;36.70
1381;DHT22;684;48.342;10.096;2023-05-10T07:13:43;16.20;36.80
1381;DHT22;684;48.342;10.096;2023-05-10T07:16:12;16.30;36.40
1381;DHT22;684;48.342;10.096;2023-05-10T07:18:38;16.40;35.90
1381;DHT22;684;48.342;10.096;2023-05-10T07:21:05;16.40;35.80
1381;DHT22;684;48.342;10.096;2023-05-10T07:23:32;16.40;35.90
1381;DHT22;684;48.342;10.096;2023-05-10T07:25:58;16.50;36.50
1381;DHT22;684;48.342;10.096;2023-05-10T07:28:25;16.60;35.40
1381;DHT22;684;48.342;10.096;2023-05-10T07:30:53;16.70;35.40
1381;DHT22;684;48.342;10.096;2023-05-10T07:33:20;16.80;35.20
1381;DHT22;684;48.342;10.096;2023-05-10T07:35:47;17.10;34.70
1381;DHT22;684;48.342;10.096;2023-05-10T07:38:13;17.30;34.00
1381;DHT22;684;48.342;10.096;2023-05-10T07:40:40;17.40;33.00
1381;DHT22;684;48.342;10.096;2023-05-10T07:43:07;17.60;32.70
1381;DHT22;684;48.342;10.096;2023-05-10T07:45:33;17.70;32.20
1381;DHT22;684;48.342;10.096;2023-05-10T07:48:01;17.90;31.80
1381;DHT22;684;48.342;10.096;2023-05-10T07:50:28;18.00;31.40
1381;DHT22;684;48.342;10.096;2023-05-10T07:52:55;18.10;31.00
1381;DHT22;684;48.342;10.096;2023-05-10T07:55:22;18.10;30.70
1381;DHT22;684;48.342;10.096;2023-05-10T07:57:48;18.10;30.70
1381;DHT22;684;48.342;10.096;2023-05-10T08:00:17;18.00;30.30
1381;DHT22;684;48.342;10.096;2023-05-10T08:02:44;17.90;30.30
1381;DHT22;684;48.342;10.096;2023-05-10T08:05:12;17.80;30.40
1381;DHT22;684;48.342;10.096;2023-05-10T08:07:39;17.70;30.50
1381;DHT22;684;48.342;10.096;2023-05-10T08:10:08;17.70;30.40
1381;DHT22;684;48.342;10.096;2023-05-10T08:12:36;17.60;31.00
1381;DHT22;684;48.342;10.096;2023-05-10T08:15:04;17.60;31.00
1381;DHT22;684;48.342;10.096;2023-05-10T08:17:32;17.50;30.80
1381;DHT22;684;48.342;10.096;2023-05-10T08:19:58;17.50;30.70
1381;DHT22;684;48.342;10.096;2023-05-10T08:22:26;17.50;31.10
1381;DHT22;684;48.342;10.096;2023-05-10T08:27:30;17.80;30.40
1381;DHT22;684;48.342;10.096;2023-05-10T08:29:56;17.90;30.30
1381;DHT22;684;48.342;10.096;2023-05-10T08:32:23;17.90;30.30
1381;DHT22;684;48.342;10.096;2023-05-10T08:34:50;17.90;30.10
1381;DHT22;684;48.342;10.096;2023-05-10T08:37:17;17.90;30.00
1381;DHT22;684;48.342;10.096;2023-05-10T08:39:45;17.90;28.50
1381;DHT22;684;48.342;10.096;2023-05-10T08:42:18;17.90;27.70
1381;DHT22;684;48.342;10.096;2023-05-10T08:44:48;17.90;27.30
1381;DHT22;684;48.342;10.096;2023-05-10T08:47:16;17.90;27.30
1381;DHT22;684;48.342;10.096;2023-05-10T08:49:47;17.90;27.50
1381;DHT22;684;48.342;10.096;2023-05-10T08:52:15;17.80;26.90
1381;DHT22;684;48.342;10.096;2023-05-10T08:54:42;17.70;27.30
1381;DHT22;684;48.342;10.096;2023-05-10T08:57:11;18.00;27.20
1381;DHT22;684;48.342;10.096;2023-05-10T08:59:38;18.40;26.80
1381;DHT22;684;48.342;10.096;2023-05-10T09:02:05;19.10;25.00
1381;DHT22;684;48.342;10.096;2023-05-10T09:04:32;19.90;23.70
1381;DHT22;684;48.342;10.096;2023-05-10T09:06:59;20.90;21.70
1381;DHT22;684;48.342;10.096;2023-05-10T09:09:27;21.70;19.70
1381;DHT22;684;48.342;10.096;2023-05-10T09:11:54;22.10;16.20
1381;DHT22;684;48.342;10.096;2023-05-10T09:14:23;22.30;15.60
1381;DHT22;684;48.342;10.096;2023-05-10T09:16:51;22.30;14.10
1381;DHT22;684;48.342;10.096;2023-05-10T09:19:19;22.40;13.40
1381;DHT22;684;48.342;10.096;2023-05-10T09:21:46;22.40;12.40
1381;DHT22;684;48.342;10.096;2023-05-10T09:24:12;22.10;12.80
1381;DHT22;684;48.342;10.096;2023-05-10T09:26:46;21.70;13.60
1381;DHT22;684;48.342;10.096;2023-05-10T09:29:14;21.20;14.40
1381;DHT22;684;48.342;10.096;2023-05-10T09:31:46;20.80;15.60
1381;DHT22;684;48.342;10.096;2023-05-10T09:34:17;20.60;16.60
1381;DHT22;684;48.342;10.096;2023-05-10T09:36:52;20.40;16.90
1381;DHT22;684;48.342;10.096;2023-05-10T09:39:19;20.30;16.20
1381;DHT22;684;48.342;10.096;2023-05-10T09:41:47;20.10;16.30
1381;DHT22;684;48.342;10.096;2023-05-10T09:44:17;20.00;16.80
1381;DHT22;684;48.342;10.096;2023-05-10T09:46:50;19.90;17.30
1381;DHT22;684;48.342;10.096;2023-05-10T09:49:18;19.90;17.80
1381;DHT22;684;48.342;10.096;2023-05-10T09:51:45;19.90;17.40
1381;DHT22;684;48.342;10.096;2023-05-10T09:54:13;20.00;17.00
1381;DHT22;684;48.342;10.096;2023-05-10T09:56:40;19.90;16.60
1381;DHT22;684;48.342;10.096;2023-05-10T09:59:09;19.90;16.70
1381;DHT22;684;48.342;10.096;2023-05-10T10:01:36;20.00;16.80
1381;DHT22;684;48.342;10.096;2023-05-10T10:04:05;20.10;17.20
1381;DHT22;684;48.342;10.096;2023-05-10T10:06:36;20.30;16.90
1381;DHT22;684;48.342;10.096;2023-05-10T10:09:04;20.30;15.70
1381;DHT22;684;48.342;10.096;2023-05-10T10:11:31;20.40;15.20
1381;DHT22;684;48.342;10.096;2023-05-10T10:13:58;20.50;15.50
1381;DHT22;684;48.342;10.096;2023-05-10T10:16:26;20.50;14.90
1381;DHT22;684;48.342;10.096;2023-05-10T10:18:53;20.60;14.50
1381;DHT22;684;48.342;10.096;2023-05-10T10:21:22;20.70;13.40
1381;DHT22;684;48.342;10.096;2023-05-10T10:23:49;20.70;12.80
1381;DHT22;684;48.342;10.096;2023-05-10T10:26:17;20.60;13.10
1381;DHT22;684;48.342;10.096;2023-05-10T10:28:49;20.50;13.60
1381;DHT22;684;48.342;10.096;2023-05-10T10:31:25;20.50;13.40
1381;DHT22;684;48.342;10.096;2023-05-10T10:34:00;20.40;13.80
1381;DHT22;684;48.342;10.096;2023-05-10T10:36:29;20.40;14.50
1381;DHT22;684;48.342;10.096;2023-05-10T10:38:59;20.40;14.50
1381;DHT22;684;48.342;10.096;2023-05-10T10:41:34;20.40;14.80
1381;DHT22;684;48.342;10.096;2023-05-10T10:44:23;20.50;14.30
1381;DHT22;684;48.342;10.096;2023-05-10T10:47:21;20.60;13.30
1381;DHT22;684;48.342;10.096;2023-05-10T10:50:03;20.60;13.30
1381;DHT22;684;48.342;10.096;2023-05-10T10:52:32;20.50;12.80
1381;DHT22;684;48.342;10.096;2023-05-10T10:55:01;20.40;13.40
1381;DHT22;684;48.342;10.096;2023-05-10T10:57:31;20.30;13.70
1381;DHT22;684;48.342;10.096;2023-05-10T11:00:32;20.30;14.20
1381;DHT22;684;48.342;10.096;2023-05-10T11:03:01;20.40;14.60
1381;DHT22;684;48.342;10.096;2023-05-10T11:05:40;20.30;14.00
1381;DHT22;684;48.342;10.096;2023-05-10T11:08:10;20.10;14.90
1381;DHT22;684;48.342;10.096;2023-05-10T11:10:38;20.10;14.70
1381;DHT22;684;48.342;10.096;2023-05-10T11:13:06;20.00;13.70
1381;DHT22;684;48.342;10.096;2023-05-10T11:15:35;19.90;13.70
1381;DHT22;684;48.342;10.096;2023-05-10T11:18:17;19.90;14.50
1381;DHT22;684;48.342;10.096;2023-05-10T11:20:43;19.90;14.00
1381;DHT22;684;48.342;10.096;2023-05-10T11:23:14;20.00;14.50
1381;DHT22;684;48.342;10.096;2023-05-10T11:25:43;20.00;15.30
1381;DHT22;684;48.342;10.096;2023-05-10T11:28:10;19.90;16.00
1381;DHT22;684;48.342;10.096;2023-05-10T11:30:38;19.90;16.30
1381;DHT22;684;48.342;10.096;2023-05-10T11:33:06;19.80;16.30
1381;DHT22;684;48.342;10.096;2023-05-10T11:35:37;19.70;16.10
1381;DHT22;684;48.342;10.096;2023-05-10T11:38:06;19.60;16.10
1381;DHT22;684;48.342;10.096;2023-05-10T11:40:35;19.80;16.70
1381;DHT22;684;48.342;10.096;2023-05-10T11:43:02;19.80;16.10
1381;DHT22;684;48.342;10.096;2023-05-10T11:45:30;19.90;16.40
1381;DHT22;684;48.342;10.096;2023-05-10T11:47:59;20.00;16.40
1381;DHT22;684;48.342;10.096;2023-05-10T11:50:26;20.10;16.30
1381;DHT22;684;48.342;10.096;2023-05-10T11:52:53;20.10;15.80
1381;DHT22;684;48.342;10.096;2023-05-10T11:55:20;20.10;15.90
1381;DHT22;684;48.342;10.096;2023-05-10T11:57:51;20.10;15.80
1381;DHT22;684;48.342;10.096;2023-05-10T12:00:19;20.10;15.40
1381;DHT22;684;48.342;10.096;2023-05-10T12:02:46;20.10;14.70
1381;DHT22;684;48.342;10.096;2023-05-10T12:05:13;20.00;14.60
1381;DHT22;684;48.342;10.096;2023-05-10T12:07:40;19.90;14.90
1381;DHT22;684;48.342;10.096;2023-05-10T12:10:08;19.80;15.30
1381;DHT22;684;48.342;10.096;2023-05-10T12:12:37;19.60;15.60
1381;DHT22;684;48.342;10.096;2023-05-10T12:15:10;19.50;16.00
1381;DHT22;684;48.342;10.096;2023-05-10T12:17:38;19.40;16.50
1381;DHT22;684;48.342;10.096;2023-05-10T12:20:15;19.30;16.70
1381;DHT22;684;48.342;10.096;2023-05-10T12:22:45;19.10;17.20
1381;DHT22;684;48.342;10.096;2023-05-10T12:25:12;18.90;17.60
1381;DHT22;684;48.342;10.096;2023-05-10T12:27:41;18.80;17.90
1381;DHT22;684;48.342;10.096;2023-05-10T12:30:19;18.60;18.20
1381;DHT22;684;48.342;10.096;2023-05-10T12:32:46;18.40;18.60
1381;DHT22;684;48.342;10.096;2023-05-10T12:35:13;18.20;19.10
1381;DHT22;684;48.342;10.096;2023-05-10T12:37:41;18.10;19.60
1381;DHT22;684;48.342;10.096;2023-05-10T12:40:10;17.90;20.80
1381;DHT22;684;48.342;10.096;2023-05-10T12:42:38;17.80;20.20
1381;DHT22;684;48.342;10.096;2023-05-10T12:45:06;17.70;20.30
1381;DHT22;684;48.342;10.096;2023-05-10T12:47:35;17.70;21.20
1381;DHT22;684;48.342;10.096;2023-05-10T12:50:03;17.50;21.70
1381;DHT22;684;48.342;10.096;2023-05-10T12:52:30;17.50;22.50
1381;DHT22;684;48.342;10.096;2023-05-10T12:54:58;17.40;22.20
1381;DHT22;684;48.342;10.096;2023-05-10T12:57:26;17.40;22.10
1381;DHT22;684;48.342;10.096;2023-05-10T12:59:54;17.30;21.40
1381;DHT22;684;48.342;10.096;2023-05-10T13:02:21;17.30;21.10
1381;DHT22;684;48.342;10.096;2023-05-10T13:04:50;17.30;21.40
1381;DHT22;684;48.342;10.096;2023-05-10T13:07:17;17.30;22.00
1381;DHT22;684;48.342;10.096;2023-05-10T13:09:44;17.30;22.70
1381;DHT22;684;48.342;10.096;2023-05-10T13:12:10;17.40;23.20
1381;DHT22;684;48.342;10.096;2023-05-10T13:14:37;17.30;23.20
1381;DHT22;684;48.342;10.096;2023-05-10T13:17:06;17.30;22.90
1381;DHT22;684;48.342;10.096;2023-05-10T13:19:33;17.30;22.90
1381;DHT22;684;48.342;10.096;2023-05-10T13:22:01;17.30;23.60
1381;DHT22;684;48.342;10.096;2023-05-10T13:24:28;17.30;24.60
1381;DHT22;684;48.342;10.096;2023-05-10T13:26:55;17.30;24.90
1381;DHT22;684;48.342;10.096;2023-05-10T13:29:21;17.30;25.40
1381;DHT22;684;48.342;10.096;2023-05-10T13:31:48;17.30;24.80
1381;DHT22;684;48.342;10.096;2023-05-10T13:34:15;17.30;24.30
1381;DHT22;684;48.342;10.096;2023-05-10T13:36:45;17.20;24.50
1381;DHT22;684;48.342;10.096;2023-05-10T13:39:14;17.30;24.90
1381;DHT22;684;48.342;10.096;2023-05-10T13:41:41;17.30;25.20
1381;DHT22;684;48.342;10.096;2023-05-10T13:44:07;17.30;25.50
1381;DHT22;684;48.342;10.096;2023-05-10T13:46:34;17.30;25.80
1381;DHT22;684;48.342;10.096;2023-05-10T13:49:01;17.20;24.00
1381;DHT22;684;48.342;10.096;2023-05-10T13:51:27;17.00;23.70
1381;DHT22;684;48.342;10.096;2023-05-10T13:53:54;16.80;23.30
1381;DHT22;684;48.342;10.096;2023-05-10T13:56:22;16.60;24.00
1381;DHT22;684;48.342;10.096;2023-05-10T13:58:49;16.40;25.10
1381;DHT22;684;48.342;10.096;2023-05-10T14:01:16;16.30;25.80
1381;DHT22;684;48.342;10.096;2023-05-10T14:03:43;16.20;26.00
1381;DHT22;684;48.342;10.096;2023-05-10T14:06:10;16.20;26.30
1381;DHT22;684;48.342;10.096;2023-05-10T14:08:37;16.10;26.80
1381;DHT22;684;48.342;10.096;2023-05-10T14:11:03;16.10;26.80
1381;DHT22;684;48.342;10.096;2023-05-10T14:13:31;16.00;27.20
1381;DHT22;684;48.342;10.096;2023-05-10T14:15:58;16.00;27.70
1381;DHT22;684;48.342;10.096;2023-05-10T14:18:26;15.90;28.20
1381;DHT22;684;48.342;10.096;2023-05-10T14:20:53;15.80;28.00
1381;DHT22;684;48.342;10.096;2023-05-10T14:23:21;15.70;28.70
1381;DHT22;684;48.342;10.096;2023-05-10T14:25:49;15.60;29.00
1381;DHT22;684;48.342;10.096;2023-05-10T14:28:16;15.50;29.30
1381;DHT22;684;48.342;10.096;2023-05-10T14:30:45;15.50;30.00
1381;DHT22;684;48.342;10.096;2023-05-10T14:33:11;15.40;29.80
1381;DHT22;684;48.342;10.096;2023-05-10T14:35:38;15.40;29.70
1381;DHT22;684;48.342;10.096;2023-05-10T14:38:05;15.40;29.90
1381;DHT22;684;48.342;10.096;2023-05-10T14:40:32;15.40;29.70
1381;DHT22;684;48.342;10.096;2023-05-10T14:42:58;15.40;29.90
1381;DHT22;684;48.342;10.096;2023-05-10T14:45:25;15.50;29.30
1381;DHT22;684;48.342;10.096;2023-05-10T14:47:53;15.40;29.10
1381;DHT22;684;48.342;10.096;2023-05-10T14:50:20;15.40;29.00
1381;DHT22;684;48.342;10.096;2023-05-10T14:52:47;15.50;28.80
1381;DHT22;684;48.342;10.096;2023-05-10T14:55:14;15.50;28.90
1381;DHT22;684;48.342;10.096;2023-05-10T14:57:41;15.50;28.90
1381;DHT22;684;48.342;10.096;2023-05-10T15:00:10;15.50;28.20
1381;DHT22;684;48.342;10.096;2023-05-10T15:02:37;15.60;27.80
1381;DHT22;684;48.342;10.096;2023-05-10T15:05:06;15.50;28.60
1381;DHT22;684;48.342;10.096;2023-05-10T15:07:33;15.50;29.40
1381;DHT22;684;48.342;10.096;2023-05-10T15:10:00;15.40;30.50
1381;DHT22;684;48.342;10.096;2023-05-10T15:12:26;15.20;32.50
1381;DHT22;684;48.342;10.096;2023-05-10T15:14:53;15.10;33.20
1381;DHT22;684;48.342;10.096;2023-05-10T15:17:20;15.00;34.50
1381;DHT22;684;48.342;10.096;2023-05-10T15:19:46;14.80;34.10
1381;DHT22;684;48.342;10.096;2023-05-10T15:22:15;14.70;34.70
1381;DHT22;684;48.342;10.096;2023-05-10T15:24:43;14.70;34.50
1381;DHT22;684;48.342;10.096;2023-05-10T15:27:10;14.80;34.40
1381;DHT22;684;48.342;10.096;2023-05-10T15:29:36;14.80;34.20
1381;DHT22;684;48.342;10.096;2023-05-10T15:32:03;14.90;33.70
1381;DHT22;684;48.342;10.096;2023-05-10T15:34:30;14.80;33.30
1381;DHT22;684;48.342;10.096;2023-05-10T15:36:57;14.70;34.40
1381;DHT22;684;48.342;10.096;2023-05-10T15:39:25;14.70;34.40
1381;DHT22;684;48.342;10.096;2023-05-10T15:41:52;14.70;34.60
1381;DHT22;684;48.342;10.096;2023-05-10T15:44:18;14.60;35.00
1381;DHT22;684;48.342;10.096;2023-05-10T15:46:45;14.50;35.80
1381;DHT22;684;48.342;10.096;2023-05-10T15:49:12;14.40;35.90
1381;DHT22;684;48.342;10.096;2023-05-10T15:51:39;14.40;35.90
1381;DHT22;684;48.342;10.096;2023-05-10T15:54:06;14.50;35.60
1381;DHT22;684;48.342;10.096;2023-05-10T15:56:34;14.50;35.60
1381;DHT22;684;48.342;10.096;2023-05-10T15:59:01;14.30;36.70
1381;DHT22;684;48.342;10.096;2023-05-10T16:01:28;14.30;37.40
1381;DHT22;684;48.342;10.096;2023-05-10T16:03:55;14.20;37.60
1381;DHT22;684;48.342;10.096;2023-05-10T16:06:21;14.20;38.30
1381;DHT22;684;48.342;10.096;2023-05-10T16:08:48;14.20;38.70
1381;DHT22;684;48.342;10.096;2023-05-10T16:11:15;14.10;39.20
1381;DHT22;684;48.342;10.096;2023-05-10T16:13:43;14.10;39.70